createdAt,value
2023-04-06T00:00:52.146Z,99.90
2023-04-06T00:03:19.790Z,99.90
2023-04-06T00:05:48.546Z,99.90
2023-04-06T00:08:16.413Z,99.90
2023-04-06T00:10:43.530Z,99.90
2023-04-06T00:13:13.106Z,99.90
2023-04-06T00:18:08.124Z,99.90
2023-04-06T00:20:35.458Z,99.90
2023-04-06T00:23:02.118Z,99.90
2023-04-06T00:25:28.848Z,99.90
2023-04-06T00:27:55.641Z,99.90
2023-04-06T00:30:22.325Z,99.90
2023-04-06T00:32:49.059Z,99.90
2023-04-06T00:35:16.821Z,99.90
2023-04-06T00:37:43.474Z,99.90
2023-04-06T00:40:10.492Z,99.90
2023-04-06T00:42:37.205Z,99.90
2023-04-06T00:45:04.019Z,99.90
2023-04-06T00:47:30.760Z,99.90
2023-04-06T00:49:57.514Z,99.90
2023-04-06T00:52:24.202Z,99.90
2023-04-06T00:54:51.677Z,99.90
2023-04-06T00:57:18.804Z,99.90
2023-04-06T00:59:46.040Z,99.90
2023-04-06T01:02:12.746Z,99.90
2023-04-06T02:35:11.648Z,99.90
2023-04-06T02:37:38.275Z,99.90
2023-04-06T02:40:05.183Z,99.90
2023-04-06T02:42:31.944Z,99.90
2023-04-06T02:44:58.609Z,99.90
2023-04-06T02:47:25.293Z,99.90
2023-04-06T02:49:51.987Z,99.90
2023-04-06T02:52:18.995Z,99.90
2023-04-06T02:54:45.762Z,99.90
2023-04-06T02:57:12.342Z,99.90
2023-04-06T02:59:39.382Z,99.90
2023-04-06T03:02:06.190Z,99.90
2023-04-06T03:04:32.813Z,99.90
2023-04-06T03:07:01.359Z,99.90
2023-04-06T03:09:28.557Z,99.90
2023-04-06T03:11:55.150Z,99.90
2023-04-06T03:14:23.208Z,99.90
2023-04-06T03:16:49.986Z,99.90
2023-04-06T03:19:16.662Z,99.90
2023-04-06T03:21:43.331Z,99.90
2023-04-06T03:24:09.929Z,99.90
2023-04-06T03:29:03.552Z,99.90
2023-04-06T03:33:57.313Z,99.90
2023-04-06T03:36:23.952Z,99.90
2023-04-06T03:38:50.893Z,99.90
2023-04-06T03:41:17.603Z,99.90
2023-04-06T03:43:44.193Z,99.90
2023-04-06T03:46:10.984Z,99.90
2023-04-06T03:48:37.648Z,99.90
2023-04-06T13:13:12.045Z,61.70
2023-04-06T13:18:35.831Z,62.30
2023-04-06T13:21:02.593Z,63.30
2023-04-06T13:23:29.340Z,63.40
2023-04-06T13:26:03.189Z,63.50
2023-04-06T13:28:30.767Z,59.30
2023-04-06T13:30:59.270Z,59.80
2023-04-06T13:36:08.555Z,62.00
2023-04-06T13:41:29.711Z,61.10
2023-04-06T13:43:59.723Z,61.70
2023-04-06T13:46:27.090Z,58.60
2023-04-06T13:48:56.704Z,62.30
2023-04-06T13:51:23.433Z,61.70
2023-04-06T13:54:02.961Z,83.20
2023-04-06T14:01:24.318Z,58.80
2023-04-06T14:03:51.278Z,61.70
2023-04-06T14:08:47.897Z,61.50
2023-04-06T14:11:15.159Z,62.50
2023-04-06T14:13:42.987Z,63.40
2023-04-06T14:16:10.029Z,64.20
2023-04-06T14:18:37.932Z,64.10
2023-04-06T14:21:04.935Z,63.40
2023-04-06T14:23:31.689Z,63.80
2023-04-06T14:26:03.732Z,64.90
2023-04-06T14:28:30.963Z,58.70
2023-04-06T14:30:57.753Z,61.90
2023-04-06T14:33:24.745Z,58.70
2023-04-06T14:36:02.183Z,59.60
2023-04-06T14:40:57.507Z,56.90
2023-04-06T14:43:27.081Z,57.30
2023-04-06T14:45:53.971Z,57.30
2023-04-06T14:48:21.040Z,57.10
2023-04-06T14:56:04.686Z,53.50
2023-04-06T14:58:41.490Z,52.80
2023-04-06T15:01:09.655Z,69.00
2023-04-06T15:03:36.546Z,76.60
2023-04-06T15:08:30.782Z,54.20
2023-04-06T16:53:26.393Z,66.40
2023-04-06T16:55:53.120Z,67.10
2023-04-06T16:58:19.724Z,65.70
2023-04-06T17:00:46.421Z,63.90
2023-04-06T17:03:13.285Z,65.50
2023-04-06T17:05:40.267Z,81.20
2023-04-06T17:08:06.879Z,78.90
2023-04-06T17:10:40.704Z,86.90
2023-04-06T17:15:35.405Z,86.50
2023-04-06T17:18:02.404Z,83.90
2023-04-06T17:20:29.235Z,83.60
2023-04-06T17:22:56.011Z,72.50
2023-04-06T17:25:22.665Z,74.30
2023-04-06T17:27:49.371Z,92.40
2023-04-06T17:42:34.183Z,90.40
2023-04-06T17:45:01.127Z,90.50
2023-04-06T17:47:32.121Z,89.40
2023-04-06T17:49:59.281Z,89.80
2023-04-06T17:52:29.345Z,91.40
2023-04-06T17:54:56.530Z,92.50
2023-04-06T17:57:23.294Z,92.20
2023-04-06T17:59:49.933Z,93.00
2023-04-06T18:02:17.282Z,94.90
2023-04-06T18:07:14.592Z,94.40
2023-04-06T18:09:41.948Z,95.90
2023-04-06T18:12:08.752Z,96.00
2023-04-06T18:14:35.737Z,97.40
2023-04-06T18:17:02.369Z,98.20
2023-04-06T18:27:08.588Z,99.60
2023-04-06T18:29:36.763Z,99.90
2023-04-06T18:32:06.882Z,99.90
2023-04-06T18:34:33.963Z,99.90
2023-04-06T18:37:01.698Z,99.90
2023-04-06T18:39:28.692Z,99.90
2023-04-06T18:41:55.864Z,99.90
2023-04-06T18:44:22.387Z,99.90
2023-04-06T18:46:49.324Z,99.90
2023-04-06T18:49:15.999Z,99.90
2023-04-06T18:51:42.970Z,99.90
2023-04-06T18:54:09.505Z,99.90
2023-04-06T18:59:04.936Z,99.90
2023-04-06T19:03:59.873Z,99.90
2023-04-06T19:06:27.422Z,99.90
2023-04-06T19:08:54.106Z,99.90
2023-04-06T19:11:23.228Z,99.90
2023-04-06T19:13:50.014Z,99.90
2023-04-06T19:21:16.665Z,99.90
2023-04-06T19:23:44.002Z,99.90
2023-04-06T19:28:38.142Z,99.90
2023-04-06T19:31:08.447Z,99.90
2023-04-06T19:33:35.727Z,99.90
2023-04-06T19:36:02.376Z,99.90
2023-04-06T19:38:29.085Z,99.90
2023-04-06T19:40:56.761Z,99.90
2023-04-06T19:43:23.317Z,99.90
2023-04-06T19:45:50.082Z,99.90
2023-04-06T19:48:17.121Z,99.90
2023-04-06T19:50:44.566Z,99.90
2023-04-06T19:55:38.343Z,99.90
2023-04-06T19:58:05.637Z,99.90
2023-04-06T20:00:32.291Z,99.90
2023-04-06T20:02:59.091Z,99.90
2023-04-06T20:05:25.813Z,99.90
2023-04-06T20:07:52.352Z,99.90
2023-04-06T20:10:18.944Z,99.90
2023-04-06T20:12:45.540Z,99.90
2023-04-06T20:15:12.596Z,99.90
2023-04-06T20:17:39.198Z,99.90
2023-04-06T20:22:32.684Z,99.90
2023-04-06T20:24:59.214Z,99.90
2023-04-06T20:27:26.000Z,99.90
2023-04-06T20:29:52.613Z,99.90
2023-04-06T20:32:22.293Z,99.90
2023-04-06T20:34:49.347Z,99.90
2023-04-06T20:37:16.299Z,99.90
2023-04-06T20:39:43.125Z,99.90
2023-04-06T20:42:10.057Z,99.90
2023-04-06T20:44:36.633Z,99.90
2023-04-06T20:47:04.173Z,99.90
2023-04-06T20:51:58.059Z,99.90
2023-04-06T20:54:25.578Z,99.90
2023-04-06T20:56:52.187Z,99.90
2023-04-06T20:59:18.709Z,99.90
2023-04-06T21:01:45.515Z,99.90
2023-04-06T21:04:12.254Z,99.90
2023-04-06T21:06:38.892Z,99.90
2023-04-06T21:09:05.442Z,99.90
2023-04-06T21:11:32.047Z,99.90
2023-04-06T21:13:58.585Z,99.90
2023-04-06T21:16:25.589Z,99.90
2023-04-06T21:18:52.124Z,99.90
2023-04-06T21:21:18.698Z,99.90
2023-04-06T21:23:45.276Z,99.90
2023-04-06T21:26:12.436Z,99.90
2023-04-06T21:28:38.975Z,99.90
2023-04-06T21:31:08.908Z,99.90
2023-04-06T21:33:35.799Z,99.90
2023-04-06T21:36:08.719Z,99.90
2023-04-06T21:38:35.269Z,99.90
2023-04-06T21:41:01.786Z,99.90
2023-04-06T21:43:28.638Z,99.90
2023-04-06T21:45:55.245Z,99.90
2023-04-06T21:48:21.786Z,99.90
2023-04-06T21:50:48.279Z,99.90
2023-04-06T21:53:14.821Z,99.90
2023-04-06T21:55:44.852Z,99.90
2023-04-06T21:58:11.592Z,99.90
2023-04-06T22:00:38.247Z,99.90
2023-04-06T22:03:04.970Z,99.90
2023-04-06T22:05:32.213Z,99.90
2023-04-06T22:08:01.776Z,99.90
2023-04-06T22:10:29.229Z,99.90
2023-04-06T22:12:56.084Z,99.90
2023-04-06T22:15:22.685Z,99.90
2023-04-06T22:17:49.304Z,99.90
2023-04-06T22:20:15.887Z,99.90
2023-04-06T22:22:42.825Z,99.90
2023-04-06T22:25:09.454Z,99.90
2023-04-06T22:27:36.113Z,99.90
2023-04-06T22:30:03.323Z,99.90
2023-04-06T22:32:29.874Z,99.90
2023-04-06T22:34:56.398Z,99.90
2023-04-06T22:37:22.917Z,99.90
2023-04-06T22:39:49.460Z,99.90
2023-04-06T22:42:15.984Z,99.90
2023-04-06T22:44:42.565Z,99.90
2023-04-06T22:47:09.136Z,99.90
2023-04-06T22:49:35.726Z,99.90
2023-04-06T22:52:02.277Z,99.90
2023-04-06T22:54:28.865Z,99.90
2023-04-06T22:56:55.856Z,99.90
2023-04-06T22:59:22.417Z,99.90
2023-04-06T23:01:49.083Z,99.90
2023-04-06T23:04:16.094Z,99.90
2023-04-06T23:06:43.956Z,99.90
2023-04-06T23:09:10.492Z,99.90
2023-04-06T23:14:04.071Z,99.90
2023-04-06T23:16:30.646Z,99.90
2023-04-06T23:18:57.273Z,99.90
2023-04-06T23:21:23.868Z,99.90
2023-04-06T23:23:50.441Z,99.90
2023-04-06T23:26:17.011Z,99.90
2023-04-06T23:28:43.654Z,99.90
2023-04-06T23:31:10.442Z,99.90
2023-04-06T23:33:37.021Z,99.90
2023-04-06T23:36:03.636Z,99.90
2023-04-06T23:38:30.424Z,99.90
2023-04-06T23:40:57.019Z,99.90
2023-04-06T23:43:23.575Z,99.90
2023-04-06T23:45:50.328Z,99.90
2023-04-06T23:48:16.848Z,99.90
2023-04-06T23:50:43.370Z,99.90
2023-04-06T23:53:09.957Z,99.90
2023-04-06T23:55:36.652Z,99.90
2023-04-06T23:58:04.103Z,99.90
